createdAt,value
2019-03-12T00:01:18.788Z,4.48
2019-03-12T00:03:46.103Z,4.25
2019-03-12T00:06:13.227Z,4.31
2019-03-12T00:08:40.320Z,4.31
2019-03-12T00:11:07.520Z,4.25
2019-03-12T00:13:34.887Z,4.13
2019-03-12T00:16:01.947Z,4.03
2019-03-12T00:18:29.103Z,3.93
2019-03-12T00:20:56.155Z,4.02
2019-03-12T00:23:23.264Z,4.11
2019-03-12T00:25:50.330Z,4.25
2019-03-12T00:28:17.991Z,4.41
2019-03-12T00:30:45.384Z,4.56
2019-03-12T00:33:12.482Z,4.82
2019-03-12T00:35:40.551Z,5.02
2019-03-12T00:38:07.584Z,5.07
2019-03-12T00:40:34.678Z,5.43
2019-03-12T00:43:02.030Z,5.62
2019-03-12T00:45:29.098Z,5.42
2019-03-12T00:47:56.183Z,4.82
2019-03-12T00:50:23.865Z,4.52
2019-03-12T00:52:50.880Z,4.50
2019-03-12T00:55:18.042Z,4.48
2019-03-12T00:57:46.298Z,4.34
2019-03-12T01:00:15.109Z,4.31
2019-03-12T01:02:42.162Z,4.22
2019-03-12T01:05:09.413Z,4.27
2019-03-12T01:07:36.857Z,4.14
2019-03-12T01:10:05.508Z,4.20
2019-03-12T01:12:32.790Z,4.50
2019-03-12T01:14:59.854Z,4.77
2019-03-12T01:17:27.035Z,4.70
2019-03-12T01:19:54.069Z,4.52
2019-03-12T01:22:21.738Z,4.55
2019-03-12T01:24:49.631Z,4.87
2019-03-12T01:27:16.734Z,5.18
2019-03-12T01:29:44.965Z,5.33
2019-03-12T01:32:12.100Z,5.18
2019-03-12T01:34:39.433Z,4.56
2019-03-12T01:37:06.521Z,4.40
2019-03-12T01:39:33.571Z,4.40
2019-03-12T01:42:00.616Z,4.47
2019-03-12T01:44:27.914Z,4.43
2019-03-12T01:46:54.956Z,4.45
2019-03-12T01:49:22.357Z,4.59
2019-03-12T01:51:49.423Z,4.79
2019-03-12T01:54:16.531Z,5.03
2019-03-12T01:56:44.100Z,5.12
2019-03-12T01:59:11.175Z,5.32
2019-03-12T02:01:38.241Z,5.38
2019-03-12T02:04:06.511Z,5.43
2019-03-12T02:06:34.024Z,5.38
2019-03-12T02:09:01.077Z,4.85
2019-03-12T02:11:30.011Z,4.26
2019-03-12T02:13:57.442Z,4.06
2019-03-12T02:16:24.508Z,3.98
2019-03-12T02:18:51.557Z,4.01
2019-03-12T02:21:18.617Z,4.12
2019-03-12T02:23:45.666Z,4.18
2019-03-12T02:26:12.714Z,4.25
2019-03-12T02:28:40.363Z,4.20
2019-03-12T02:31:07.497Z,3.91
2019-03-12T02:33:35.654Z,3.68
2019-03-12T02:36:03.514Z,3.56
2019-03-12T02:38:30.552Z,3.81
2019-03-12T02:40:57.594Z,4.01
2019-03-12T02:43:27.472Z,4.15
2019-03-12T02:45:54.644Z,4.31
2019-03-12T02:48:22.797Z,4.39
2019-03-12T02:50:50.226Z,4.50
2019-03-12T02:53:17.295Z,4.51
2019-03-12T02:55:44.368Z,4.50
2019-03-12T02:58:11.484Z,4.15
2019-03-12T03:00:38.542Z,3.85
2019-03-12T03:03:05.618Z,3.82
2019-03-12T03:05:36.812Z,3.62
2019-03-12T03:08:06.843Z,3.43
2019-03-12T03:10:34.190Z,3.28
2019-03-12T03:13:01.222Z,3.26
2019-03-12T03:15:32.974Z,3.35
2019-03-12T03:18:00.045Z,3.46
2019-03-12T03:20:27.060Z,3.61
2019-03-12T03:22:54.165Z,3.62
2019-03-12T03:25:21.362Z,3.50
2019-03-12T03:27:48.560Z,3.33
2019-03-12T03:30:18.547Z,3.32
2019-03-12T03:32:46.050Z,3.26
2019-03-12T03:35:13.161Z,3.19
2019-03-12T03:37:40.226Z,3.34
2019-03-12T03:40:07.272Z,3.36
2019-03-12T03:42:34.297Z,3.28
2019-03-12T03:45:01.389Z,3.27
2019-03-12T03:47:28.733Z,3.11
2019-03-12T03:49:55.769Z,3.07
2019-03-12T03:52:22.830Z,3.09
2019-03-12T03:54:49.872Z,3.13
2019-03-12T03:57:16.916Z,3.15
2019-03-12T03:59:44.480Z,3.10
2019-03-12T04:02:11.849Z,3.00
2019-03-12T04:04:39.991Z,2.94
2019-03-12T04:07:08.864Z,2.89
2019-03-12T04:09:36.534Z,2.87
2019-03-12T04:12:03.685Z,2.88
2019-03-12T04:14:30.864Z,2.89
2019-03-12T04:16:58.567Z,2.94
2019-03-12T04:19:25.632Z,2.94
2019-03-12T04:21:52.707Z,2.97
2019-03-12T04:24:20.248Z,3.06
2019-03-12T04:26:50.401Z,2.88
2019-03-12T04:29:17.470Z,2.69
2019-03-12T04:31:44.550Z,2.67
2019-03-12T04:34:16.938Z,2.62
2019-03-12T04:36:44.549Z,2.63
2019-03-12T04:39:11.932Z,2.60
2019-03-12T04:41:38.963Z,2.59
2019-03-12T04:44:06.076Z,2.58
2019-03-12T04:46:33.112Z,2.70
2019-03-12T04:49:00.144Z,2.63
2019-03-12T04:51:27.204Z,2.57
2019-03-12T04:53:54.568Z,2.46
2019-03-12T04:56:21.589Z,2.39
2019-03-12T04:58:48.687Z,2.38
2019-03-12T05:01:15.821Z,2.46
2019-03-12T05:03:42.851Z,2.43
2019-03-12T05:06:09.936Z,2.46
2019-03-12T05:08:37.617Z,2.56
2019-03-12T05:11:04.696Z,2.50
2019-03-12T05:13:31.768Z,2.42
2019-03-12T05:15:59.229Z,2.33
2019-03-12T05:18:26.335Z,2.32
2019-03-12T05:20:53.423Z,2.37
2019-03-12T05:23:21.126Z,2.22
2019-03-12T05:25:50.142Z,2.20
2019-03-12T05:28:17.634Z,2.21
2019-03-12T05:30:44.694Z,2.36
2019-03-12T05:33:12.131Z,2.46
2019-03-12T05:35:40.948Z,2.64
2019-03-12T05:38:08.013Z,2.63
2019-03-12T05:40:35.368Z,2.72
2019-03-12T05:43:02.488Z,2.72
2019-03-12T05:45:29.613Z,2.73
2019-03-12T05:47:56.650Z,2.66
2019-03-12T05:50:23.731Z,2.68
2019-03-12T05:52:52.654Z,2.90
2019-03-12T05:55:19.674Z,3.03
2019-03-12T05:57:46.729Z,3.14
2019-03-12T06:00:17.289Z,3.14
2019-03-12T06:03:03.412Z,3.06
2019-03-12T06:08:30.131Z,3.23
2019-03-12T06:10:57.193Z,3.49
2019-03-12T06:13:24.389Z,3.56
2019-03-12T06:15:54.025Z,3.54
2019-03-12T06:18:22.045Z,3.64
2019-03-12T06:20:49.081Z,3.81
2019-03-12T06:23:16.126Z,3.89
2019-03-12T06:25:43.140Z,3.85
2019-03-12T06:28:10.198Z,3.87
2019-03-12T06:30:48.800Z,3.94
2019-03-12T06:33:24.136Z,3.89
2019-03-12T06:36:03.089Z,3.82
2019-03-12T06:38:39.694Z,3.87
2019-03-12T06:41:29.800Z,3.91
2019-03-12T06:44:25.246Z,4.01
2019-03-12T06:47:10.711Z,3.91
2019-03-12T06:50:15.750Z,4.01
2019-03-12T06:52:59.730Z,4.19
2019-03-12T06:55:36.670Z,4.12
2019-03-12T06:58:35.769Z,4.21
2019-03-12T07:01:26.168Z,4.12
2019-03-12T07:04:05.402Z,4.17
2019-03-12T07:07:00.917Z,4.34
2019-03-12T07:09:47.899Z,4.39
2019-03-12T07:12:27.356Z,4.53
2019-03-12T07:15:08.997Z,4.87
2019-03-12T07:17:45.723Z,5.43
2019-03-12T07:20:22.260Z,5.96
2019-03-12T07:23:18.304Z,6.22
2019-03-12T07:25:56.318Z,6.45
2019-03-12T07:28:29.709Z,6.65
2019-03-12T07:31:13.423Z,7.22
2019-03-12T07:34:06.547Z,7.77
2019-03-12T07:36:42.468Z,7.96
2019-03-12T07:39:28.486Z,7.71
2019-03-12T07:42:17.895Z,8.06
2019-03-12T07:44:56.642Z,8.26
2019-03-12T07:47:47.099Z,7.97
2019-03-12T07:50:37.412Z,8.14
2019-03-12T07:53:16.433Z,8.03
2019-03-12T07:55:59.700Z,8.00
2019-03-12T07:58:45.323Z,8.05
2019-03-12T08:01:24.922Z,7.77
2019-03-12T08:04:15.145Z,7.67
2019-03-12T08:06:50.117Z,7.89
2019-03-12T08:09:39.887Z,8.31
2019-03-12T08:12:14.089Z,9.08
2019-03-12T08:15:07.824Z,9.08
2019-03-12T08:17:48.802Z,8.89
2019-03-12T08:20:40.980Z,8.65
2019-03-12T08:23:30.506Z,8.83
2019-03-12T08:26:32.432Z,8.93
2019-03-12T08:29:19.424Z,9.29
2019-03-12T08:32:10.657Z,9.59
2019-03-12T08:34:58.100Z,10.06
2019-03-12T08:37:33.726Z,9.76
2019-03-12T08:40:19.326Z,9.47
2019-03-12T08:43:12.308Z,9.72
2019-03-12T08:46:05.192Z,9.96
2019-03-12T08:48:39.083Z,10.80
2019-03-12T08:51:26.211Z,10.84
2019-03-12T08:54:06.873Z,10.70
2019-03-12T08:56:45.016Z,10.87
2019-03-12T08:59:43.803Z,10.84
2019-03-12T09:02:31.910Z,10.91
2019-03-12T09:05:31.007Z,11.01
2019-03-12T09:08:23.877Z,11.38
2019-03-12T09:11:09.184Z,11.87
2019-03-12T09:13:44.852Z,11.60
2019-03-12T09:16:21.739Z,11.45
2019-03-12T09:19:23.836Z,11.75
2019-03-12T09:22:04.802Z,11.65
2019-03-12T09:24:54.344Z,11.70
2019-03-12T09:27:42.659Z,12.25
2019-03-12T09:30:39.632Z,12.65
2019-03-12T09:33:14.348Z,12.45
2019-03-12T09:36:00.990Z,12.22
2019-03-12T09:38:36.452Z,12.09
2019-03-12T09:41:38.674Z,11.94
2019-03-12T09:44:24.750Z,12.07
2019-03-12T09:47:03.983Z,12.71
2019-03-12T09:49:42.711Z,13.09
2019-03-12T09:52:32.374Z,13.22
2019-03-12T09:55:06.495Z,13.30
2019-03-12T09:57:53.169Z,13.51
2019-03-12T10:00:29.710Z,13.62
2019-03-12T10:03:22.252Z,13.76
2019-03-12T10:06:07.778Z,14.00
2019-03-12T10:09:01.528Z,13.90
2019-03-12T10:11:45.480Z,14.39
2019-03-12T10:14:30.867Z,15.42
2019-03-12T10:17:08.997Z,15.88
2019-03-12T10:19:55.674Z,15.87
2019-03-12T10:22:42.385Z,15.27
2019-03-12T10:25:19.873Z,16.34
2019-03-12T10:28:05.683Z,15.44
2019-03-12T10:30:50.661Z,16.03
2019-03-12T10:33:24.754Z,15.71
2019-03-12T10:36:07.249Z,15.16
2019-03-12T10:39:33.829Z,14.45
2019-03-12T10:42:19.692Z,14.21
2019-03-12T10:45:01.252Z,14.26
2019-03-12T10:47:28.744Z,13.92
2019-03-12T10:49:56.035Z,13.83
2019-03-12T10:52:24.225Z,13.68
2019-03-12T10:54:52.256Z,13.86
2019-03-12T10:57:21.595Z,13.48
2019-03-12T10:59:49.497Z,14.25
2019-03-12T11:02:17.251Z,13.95
2019-03-12T11:04:44.319Z,14.98
2019-03-12T11:07:16.564Z,16.30
2019-03-12T11:09:40.416Z,17.62
2019-03-12T11:12:07.474Z,19.03
2019-03-12T11:14:34.565Z,18.20
2019-03-12T11:17:02.067Z,17.14
2019-03-12T11:19:29.102Z,16.67
2019-03-12T11:21:58.839Z,16.07
2019-03-12T11:24:25.921Z,16.04
2019-03-12T11:26:58.737Z,15.72
2019-03-12T11:29:25.826Z,16.04
2019-03-12T11:31:53.387Z,15.44
2019-03-12T11:34:21.644Z,15.41
2019-03-12T11:36:48.758Z,15.55
2019-03-12T11:39:16.318Z,15.13
2019-03-12T11:41:43.624Z,14.40
2019-03-12T11:44:10.780Z,14.61
2019-03-12T11:46:44.218Z,14.87
2019-03-12T11:49:06.762Z,15.21
2019-03-12T11:51:33.975Z,16.55
2019-03-12T11:54:01.078Z,17.02
2019-03-12T11:56:28.864Z,17.95
2019-03-12T11:58:55.920Z,18.41
2019-03-12T12:01:23.196Z,18.89
2019-03-12T12:03:50.901Z,17.18
2019-03-12T12:06:17.995Z,16.13
2019-03-12T12:08:45.037Z,15.76
2019-03-12T12:11:12.461Z,15.18
2019-03-12T12:13:39.620Z,15.44
2019-03-12T12:16:06.960Z,15.23
2019-03-12T12:18:34.486Z,15.49
2019-03-12T12:21:03.613Z,16.58
2019-03-12T12:23:35.536Z,16.21
2019-03-12T12:26:02.663Z,16.04
2019-03-12T12:28:29.767Z,15.84
2019-03-12T12:30:56.841Z,15.72
2019-03-12T12:33:23.920Z,15.73
2019-03-12T12:35:52.278Z,15.47
2019-03-12T12:38:20.801Z,15.46
2019-03-12T12:40:47.907Z,15.57
2019-03-12T12:43:15.068Z,14.64
2019-03-12T12:45:42.205Z,14.48
2019-03-12T12:48:09.391Z,14.03
2019-03-12T12:50:37.713Z,14.03
2019-03-12T12:53:06.355Z,13.67
2019-03-12T12:55:33.487Z,13.21
2019-03-12T12:58:00.662Z,13.08
2019-03-12T13:00:28.594Z,13.01
2019-03-12T13:02:55.783Z,13.00
2019-03-12T13:05:22.859Z,13.31
2019-03-12T13:07:54.671Z,13.85
2019-03-12T13:10:25.553Z,13.87
2019-03-12T13:12:54.513Z,13.67
2019-03-12T13:15:21.832Z,14.47
2019-03-12T13:17:49.381Z,18.56
2019-03-12T13:20:16.890Z,19.50
2019-03-12T13:22:43.922Z,19.94
2019-03-12T13:25:11.304Z,20.58
2019-03-12T13:27:42.418Z,18.78
2019-03-12T13:30:09.966Z,17.78
2019-03-12T13:32:38.254Z,17.05
2019-03-12T13:35:07.342Z,17.08
2019-03-12T13:37:45.363Z,16.62
2019-03-12T13:40:15.188Z,17.69
2019-03-12T13:42:42.251Z,19.41
2019-03-12T13:45:11.085Z,19.83
2019-03-12T13:47:38.337Z,19.84
2019-03-12T13:50:06.179Z,19.43
2019-03-12T13:52:33.735Z,18.52
2019-03-12T13:55:02.087Z,18.74
2019-03-12T13:57:31.046Z,18.71
2019-03-12T13:59:58.470Z,17.45
2019-03-12T14:02:29.742Z,16.31
2019-03-12T14:04:57.657Z,15.79
2019-03-12T14:07:27.674Z,16.70
2019-03-12T14:09:57.371Z,16.45
2019-03-12T14:12:26.325Z,18.95
2019-03-12T14:14:53.427Z,21.25
2019-03-12T14:17:20.479Z,21.21
2019-03-12T14:19:47.667Z,20.09
2019-03-12T14:22:15.259Z,17.80
2019-03-12T14:24:42.681Z,16.05
2019-03-12T14:27:10.397Z,16.35
2019-03-12T14:29:37.527Z,17.07
2019-03-12T14:32:04.879Z,17.99
2019-03-12T14:34:38.630Z,18.86
2019-03-12T14:37:08.444Z,17.81
2019-03-12T14:39:35.521Z,15.99
2019-03-12T14:42:03.119Z,15.03
2019-03-12T14:44:30.310Z,14.33
2019-03-12T14:46:57.345Z,15.24
2019-03-12T14:49:24.451Z,15.12
2019-03-12T14:52:16.676Z,14.68
2019-03-12T14:54:43.940Z,14.75
2019-03-12T14:57:10.982Z,15.05
2019-03-12T14:59:38.069Z,15.92
2019-03-12T15:02:06.260Z,17.06
2019-03-12T15:04:34.457Z,17.57
2019-03-12T15:07:01.575Z,18.42
2019-03-12T15:09:29.092Z,18.29
2019-03-12T15:11:56.256Z,18.10
2019-03-12T15:14:23.579Z,17.18
2019-03-12T15:16:50.743Z,16.08
2019-03-12T15:19:18.247Z,16.32
2019-03-12T15:21:46.416Z,16.12
2019-03-12T15:24:13.559Z,16.15
2019-03-12T15:26:40.640Z,16.76
2019-03-12T15:29:07.866Z,17.14
2019-03-12T15:31:35.231Z,17.50
2019-03-12T15:34:02.785Z,16.14
2019-03-12T15:36:29.870Z,14.85
2019-03-12T15:38:57.086Z,14.88
2019-03-12T15:41:24.596Z,14.38
2019-03-12T15:43:53.554Z,13.55
2019-03-12T15:46:20.655Z,13.57
2019-03-12T15:48:48.005Z,13.10
2019-03-12T15:51:15.500Z,12.60
2019-03-12T15:53:42.637Z,12.48
2019-03-12T15:56:10.923Z,12.43
2019-03-12T15:58:39.166Z,12.04
2019-03-12T16:01:06.306Z,11.89
2019-03-12T16:03:35.194Z,11.78
2019-03-12T16:06:02.371Z,11.77
2019-03-12T16:08:29.452Z,11.48
2019-03-12T16:10:58.500Z,11.47
2019-03-12T16:13:27.595Z,11.32
2019-03-12T16:15:55.294Z,11.24
2019-03-12T16:18:22.372Z,11.14
2019-03-12T16:20:49.455Z,11.09
2019-03-12T16:23:18.257Z,11.05
2019-03-12T16:25:45.531Z,11.18
2019-03-12T16:28:12.712Z,11.08
2019-03-12T16:30:39.952Z,10.85
2019-03-12T16:33:09.744Z,10.87
2019-03-12T16:35:37.046Z,10.83
2019-03-12T16:38:06.857Z,10.81
2019-03-12T16:40:33.622Z,10.73
2019-03-12T16:43:01.308Z,10.83
2019-03-12T16:45:28.401Z,10.67
2019-03-12T16:47:55.653Z,10.63
2019-03-12T16:50:22.908Z,10.60
2019-03-12T16:52:50.328Z,10.64
2019-03-12T16:55:17.539Z,10.47
2019-03-12T16:57:46.965Z,10.27
2019-03-12T17:00:18.013Z,10.29
2019-03-12T17:02:50.134Z,10.26
2019-03-12T17:05:30.738Z,10.17
2019-03-12T17:08:00.962Z,10.17
2019-03-12T17:10:28.449Z,10.07
2019-03-12T17:12:55.920Z,10.05
2019-03-12T17:15:23.202Z,10.11
2019-03-12T17:17:50.410Z,10.15
2019-03-12T17:20:18.365Z,10.10
2019-03-12T17:22:47.629Z,10.06
2019-03-12T17:25:15.887Z,10.09
2019-03-12T17:27:43.230Z,10.07
2019-03-12T17:30:15.562Z,10.13
2019-03-12T17:32:43.114Z,10.14
2019-03-12T17:35:11.556Z,10.31
2019-03-12T17:37:39.624Z,10.47
2019-03-12T17:40:10.769Z,10.58
2019-03-12T17:42:37.961Z,10.66
2019-03-12T17:45:06.943Z,10.42
2019-03-12T17:47:34.373Z,10.22
2019-03-12T17:50:01.495Z,10.24
2019-03-12T17:52:31.543Z,10.35
2019-03-12T17:54:58.771Z,10.35
2019-03-12T17:57:25.993Z,10.27
2019-03-12T17:59:54.951Z,10.29
2019-03-12T18:02:27.192Z,10.28
2019-03-12T18:05:02.865Z,10.30
2019-03-12T18:07:31.075Z,10.45
2019-03-12T18:09:59.344Z,10.34
2019-03-12T18:12:26.402Z,10.25
2019-03-12T18:14:53.659Z,10.27
2019-03-12T18:17:21.398Z,10.37
2019-03-12T18:19:50.348Z,10.41
2019-03-12T18:22:17.498Z,10.38
2019-03-12T18:24:45.837Z,10.30
2019-03-12T18:27:12.910Z,10.26
2019-03-12T18:29:40.011Z,10.28
2019-03-12T18:32:07.078Z,10.20
2019-03-12T18:34:34.635Z,10.27
2019-03-12T18:37:03.551Z,10.31
2019-03-12T18:39:31.091Z,10.30
2019-03-12T18:41:59.252Z,10.35
2019-03-12T18:44:26.391Z,10.37
2019-03-12T18:46:59.916Z,10.26
2019-03-12T18:49:27.532Z,10.33
2019-03-12T18:51:54.694Z,10.34
2019-03-12T18:54:22.517Z,10.27
2019-03-12T18:56:49.712Z,10.28
2019-03-12T18:59:18.670Z,10.34
2019-03-12T19:01:45.734Z,10.39
2019-03-12T19:04:12.832Z,10.47
2019-03-12T19:06:40.270Z,10.37
2019-03-12T19:09:08.525Z,10.43
2019-03-12T19:11:37.491Z,10.40
2019-03-12T19:14:05.349Z,10.48
2019-03-12T19:16:32.539Z,10.41
2019-03-12T19:18:59.763Z,10.48
2019-03-12T19:21:27.128Z,10.49
2019-03-12T19:23:54.202Z,10.45
2019-03-12T19:26:21.401Z,10.48
2019-03-12T19:28:48.510Z,10.43
2019-03-12T19:31:32.634Z,10.45
2019-03-12T19:34:05.688Z,10.53
2019-03-12T19:36:32.807Z,10.58
2019-03-12T19:38:59.904Z,10.62
2019-03-12T19:41:27.526Z,10.71
2019-03-12T19:43:55.737Z,10.63
2019-03-12T19:46:22.978Z,10.61
2019-03-12T19:48:50.134Z,10.62
2019-03-12T19:51:17.484Z,10.62
2019-03-12T19:53:44.595Z,10.60
2019-03-12T19:56:13.238Z,10.66
2019-03-12T19:58:40.373Z,10.64
2019-03-12T20:01:08.204Z,10.73
2019-03-12T20:03:35.392Z,10.75
2019-03-12T20:06:02.789Z,10.71
2019-03-12T20:08:30.203Z,10.68
2019-03-12T20:11:28.796Z,10.56
2019-03-12T20:14:25.067Z,10.53
2019-03-12T20:17:45.651Z,10.58
2019-03-12T20:21:06.776Z,10.69
2019-03-12T20:24:01.129Z,10.78
2019-03-12T20:27:15.006Z,10.88
2019-03-12T20:30:11.752Z,10.81
2019-03-12T20:33:30.044Z,10.77
2019-03-12T20:36:41.036Z,10.78
2019-03-12T20:39:47.148Z,10.75
2019-03-12T20:42:50.973Z,10.83
2019-03-12T20:45:52.411Z,10.88
2019-03-12T20:48:45.131Z,11.02
2019-03-12T20:51:49.509Z,11.18
2019-03-12T20:55:19.782Z,11.14
2019-03-12T20:58:24.222Z,11.10
2019-03-12T21:01:30.778Z,11.12
2019-03-12T21:04:32.840Z,11.16
2019-03-12T21:08:06.249Z,11.11
2019-03-12T21:11:27.776Z,11.20
2019-03-12T21:14:12.931Z,11.18
2019-03-12T21:17:27.673Z,11.24
2019-03-12T21:20:44.347Z,11.39
2019-03-12T21:23:40.335Z,11.33
2019-03-12T21:26:45.290Z,11.48
2019-03-12T21:29:38.967Z,11.38
2019-03-12T21:32:07.239Z,11.30
2019-03-12T21:34:34.307Z,11.25
2019-03-12T21:37:01.627Z,11.07
2019-03-12T21:39:29.469Z,11.03
2019-03-12T21:41:57.375Z,10.89
2019-03-12T21:44:24.546Z,10.85
2019-03-12T21:46:51.742Z,10.62
2019-03-12T21:49:20.038Z,10.27
2019-03-12T21:51:47.283Z,9.84
2019-03-12T21:54:14.365Z,9.50
2019-03-12T21:56:41.982Z,9.23
2019-03-12T21:59:09.079Z,9.20
2019-03-12T22:01:36.262Z,9.10
2019-03-12T22:04:03.423Z,9.15
2019-03-12T22:06:30.446Z,9.28
2019-03-12T22:08:57.666Z,9.35
2019-03-12T22:11:28.391Z,9.48
2019-03-12T22:13:55.699Z,9.50
2019-03-12T22:16:22.903Z,9.63
2019-03-12T22:18:50.579Z,9.72
2019-03-12T22:21:22.895Z,9.83
2019-03-12T22:23:49.953Z,9.93
2019-03-12T22:26:17.244Z,9.97
2019-03-12T22:28:45.482Z,10.04
2019-03-12T22:31:13.149Z,10.09
2019-03-12T22:33:40.303Z,10.15
2019-03-12T22:36:07.339Z,10.20
2019-03-12T22:38:35.808Z,10.21
2019-03-12T22:41:06.152Z,10.28
2019-03-12T22:43:33.168Z,10.29
2019-03-12T22:46:00.375Z,10.42
2019-03-12T22:48:27.780Z,10.42
2019-03-12T22:50:54.825Z,10.47
2019-03-12T22:53:21.939Z,10.54
2019-03-12T22:55:49.011Z,10.55
2019-03-12T22:58:16.101Z,10.61
2019-03-12T23:01:02.493Z,10.64
2019-03-12T23:03:47.986Z,10.68
2019-03-12T23:06:33.684Z,10.68
2019-03-12T23:09:21.004Z,10.78
2019-03-12T23:11:50.011Z,10.66
2019-03-12T23:14:17.528Z,10.76
2019-03-12T23:16:46.463Z,10.80
2019-03-12T23:19:13.679Z,10.86
2019-03-12T23:21:41.409Z,10.87
2019-03-12T23:24:08.778Z,10.69
2019-03-12T23:26:36.070Z,10.29
2019-03-12T23:29:03.362Z,9.83
2019-03-12T23:31:30.613Z,9.47
2019-03-12T23:33:57.919Z,9.39
2019-03-12T23:36:25.212Z,9.26
2019-03-12T23:38:52.829Z,9.27
2019-03-12T23:41:19.915Z,9.16
2019-03-12T23:43:46.991Z,9.01
2019-03-12T23:46:14.129Z,8.94
2019-03-12T23:48:41.466Z,8.96
2019-03-12T23:51:08.526Z,8.89
2019-03-12T23:53:36.087Z,8.85
2019-03-12T23:56:04.949Z,8.79
2019-03-12T23:58:31.993Z,8.80
